Main page
METAR-TAF:

METAR-TAF

Airports :

De Kooy Airfield

Den Helder, Netherlands

latitude: 52-55N, longitude: 004-47E, elevation: 0 m

Current weather observation

The report was made 23 minutes ago, at 14:25 UTC
Wind 8 kt from the Southwest, varying between South/Southwest and West
Temperature 13°C
Humidity 47%
Pressure 1023 hPa
Visibility 10 km or more
Few clouds at a height of 4000 ft

METAR: EHKD 041425Z AUTO 24008KT 210V270 9999 NCD 13/02 Q1023 BLU 23008KT 9999 FEW040

Time: 16:48 (14:48 UTC)

Forecast

The report was made 2 hours and 9 minutes ago, at 12:39 UTC
Forecast valid from 04 at 13 UTC to 05 at 01 UTC
Wind 14 kt from the Southwest
Few clouds at a height of 4000 ft
Becoming
from 04 at 17 UTC to 04 at 19 UTC
Wind 7 kt from the Southeast

TAF: EHKD 041239Z 0413/0501 23014KT FEW040 BECMG 0417/0419 14007KT

Weather observations and forecasts of more than 4000 airports (METAR and TAF reports).

The available stations are represented by yellow and red dots on the map.

Hover mouse over dot to see the name of the station.

Then click to see weather observations and forecasts.

To change the map : click on the green buttons with a black cross to zoom in, on the green button with a dash to zoom out, or on the green arrows for adjacent maps.


METAR-TAF: